createdAt,value
2023-04-11T00:00:59.607Z,98.63
2023-04-11T00:03:29.174Z,99.49
2023-04-11T00:05:57.285Z,98.45
2023-04-11T00:08:25.604Z,97.07
2023-04-11T00:10:53.570Z,100.00
2023-04-11T00:13:21.528Z,100.00
2023-04-11T00:15:49.533Z,100.00
2023-04-11T00:18:18.921Z,98.40
2023-04-11T00:20:46.891Z,97.50
2023-04-11T00:23:14.865Z,97.33
2023-04-11T00:25:43.100Z,96.98
2023-04-11T00:28:11.446Z,97.61
2023-04-11T00:30:39.682Z,97.49
2023-04-11T00:33:08.016Z,97.81
2023-04-11T00:35:39.490Z,98.42
2023-04-11T00:38:07.786Z,98.56
2023-04-11T00:40:35.875Z,97.47
2023-04-11T00:43:04.456Z,96.46
2023-04-11T00:45:32.667Z,95.44
2023-04-11T00:48:01.128Z,95.24
2023-04-11T00:50:29.987Z,95.01
2023-04-11T00:52:59.689Z,95.24
2023-04-11T00:55:28.455Z,95.21
2023-04-11T00:57:56.677Z,95.19
2023-04-11T01:00:25.675Z,95.34
2023-04-11T01:02:54.667Z,94.84
2023-04-11T01:05:22.886Z,94.02
2023-04-11T01:07:54.980Z,93.61
2023-04-11T01:10:28.932Z,94.37
2023-04-11T01:12:58.577Z,93.80
2023-04-11T01:15:26.726Z,93.09
2023-04-11T01:17:55.611Z,93.16
2023-04-11T01:20:24.036Z,94.02
2023-04-11T01:22:52.560Z,94.23
2023-04-11T01:25:22.874Z,94.04
2023-04-11T01:27:51.023Z,94.37
2023-04-11T01:30:19.037Z,93.27
2023-04-11T01:32:50.566Z,98.15
2023-04-11T01:35:20.369Z,98.54
2023-04-11T01:37:48.655Z,97.16
2023-04-11T01:40:19.059Z,96.37
2023-04-11T01:42:49.818Z,95.89
2023-04-11T01:45:19.093Z,95.17
2023-04-11T01:47:49.596Z,98.64
2023-04-11T01:50:19.054Z,100.00
2023-04-11T01:52:47.455Z,100.00
2023-04-11T01:55:15.585Z,99.39
2023-04-11T01:57:43.824Z,97.89
2023-04-11T02:00:14.722Z,97.00
2023-04-11T02:02:43.087Z,96.62
2023-04-11T02:05:11.722Z,95.75
2023-04-11T02:07:39.712Z,93.55
2023-04-11T02:10:09.240Z,93.54
2023-04-11T02:12:37.289Z,94.04
2023-04-11T02:15:06.365Z,93.78
2023-04-11T02:17:37.051Z,93.92
2023-04-11T02:20:07.283Z,94.65
2023-04-11T02:22:35.292Z,94.37
2023-04-11T02:25:03.354Z,95.86
2023-04-11T02:27:32.207Z,96.70
2023-04-11T02:30:00.992Z,97.26
2023-04-11T02:32:30.555Z,98.15
2023-04-11T02:34:59.953Z,100.00
2023-04-11T02:37:28.255Z,100.00
2023-04-11T02:39:59.740Z,100.00
2023-04-11T02:42:27.829Z,100.00
2023-04-11T02:44:56.629Z,100.00
2023-04-11T02:47:28.876Z,100.00
2023-04-11T02:50:03.047Z,100.00
2023-04-11T02:52:37.745Z,100.00
2023-04-11T02:55:06.348Z,100.00
2023-04-11T02:57:34.500Z,100.00
2023-04-11T03:00:03.510Z,100.00
2023-04-11T03:02:41.761Z,100.00
2023-04-11T03:05:11.727Z,100.00
2023-04-11T03:07:41.108Z,100.00
2023-04-11T03:10:11.219Z,100.00
2023-04-11T03:12:39.325Z,100.00
2023-04-11T03:15:10.132Z,100.00
2023-04-11T03:17:38.265Z,100.00
2023-04-11T03:20:08.451Z,100.00
2023-04-11T03:22:37.901Z,100.00
2023-04-11T03:25:07.771Z,100.00
2023-04-11T03:27:36.147Z,99.02
2023-04-11T03:30:06.445Z,98.97
2023-04-11T03:32:42.024Z,100.00
2023-04-11T03:35:10.791Z,99.25
2023-04-11T03:37:43.787Z,98.36
2023-04-11T03:40:12.502Z,97.17
2023-04-11T03:42:44.718Z,95.93
2023-04-11T03:45:16.927Z,96.05
2023-04-11T03:47:45.162Z,95.70
2023-04-11T03:50:15.171Z,95.17
2023-04-11T03:52:49.084Z,95.22
2023-04-11T03:55:18.630Z,95.43
2023-04-11T03:57:46.699Z,95.09
2023-04-11T04:00:15.912Z,94.65
2023-04-11T04:02:49.342Z,94.81
2023-04-11T04:05:17.622Z,94.72
2023-04-11T04:07:45.868Z,96.07
2023-04-11T04:10:30.265Z,95.26
2023-04-11T04:12:58.320Z,95.49
2023-04-11T04:15:33.946Z,95.63
2023-04-11T04:18:03.768Z,95.86
2023-04-11T04:20:43.258Z,97.22
2023-04-11T04:23:14.238Z,98.21
2023-04-11T04:26:02.351Z,98.35
2023-04-11T04:28:33.240Z,100.00
2023-04-11T04:31:04.397Z,100.00
2023-04-11T04:33:42.814Z,100.00
2023-04-11T04:36:19.075Z,99.18
2023-04-11T04:38:51.497Z,99.40
2023-04-11T04:41:24.052Z,100.00
2023-04-11T04:44:00.183Z,100.00
2023-04-11T04:46:39.940Z,98.90
2023-04-11T04:49:08.988Z,97.62
2023-04-11T04:51:38.724Z,97.68
2023-04-11T04:54:07.272Z,97.01
2023-04-11T04:56:36.678Z,96.01
2023-04-11T04:59:05.484Z,95.24
2023-04-11T05:01:35.317Z,92.89
2023-04-11T05:04:05.979Z,92.76
2023-04-11T05:06:55.877Z,92.95
2023-04-11T05:09:24.553Z,91.18
2023-04-11T05:11:57.976Z,91.73
2023-04-11T05:14:26.150Z,90.82
2023-04-11T05:16:54.169Z,91.01
2023-04-11T05:19:22.202Z,90.55
2023-04-11T05:21:52.545Z,91.70
2023-04-11T05:24:20.629Z,92.04
2023-04-11T05:26:49.500Z,91.99
2023-04-11T05:29:22.097Z,91.94
2023-04-11T05:31:50.698Z,90.79
2023-04-11T05:34:19.039Z,91.70
2023-04-11T05:36:49.958Z,91.92
2023-04-11T05:39:17.974Z,90.80
2023-04-11T05:41:45.963Z,91.32
2023-04-11T05:44:14.015Z,93.28
2023-04-11T05:46:43.401Z,92.88
2023-04-11T05:49:11.698Z,92.14
2023-04-11T05:51:39.832Z,92.71
2023-04-11T05:54:08.352Z,91.54
2023-04-11T05:56:38.271Z,92.05
2023-04-11T05:59:06.233Z,91.65
2023-04-11T06:01:34.811Z,92.65
2023-04-11T06:04:04.338Z,92.81
2023-04-11T06:06:34.006Z,92.08
2023-04-11T06:09:02.057Z,91.63
2023-04-11T06:11:30.991Z,91.45
2023-04-11T06:13:59.019Z,91.01
2023-04-11T06:16:27.148Z,90.88
2023-04-11T06:18:55.206Z,89.98
2023-04-11T06:21:24.595Z,90.13
2023-04-11T06:23:52.581Z,89.12
2023-04-11T06:26:20.733Z,88.83
2023-04-11T06:28:48.704Z,89.37
2023-04-11T06:31:16.804Z,88.42
2023-04-11T06:33:45.096Z,87.99
2023-04-11T06:36:13.400Z,87.87
2023-04-11T06:38:43.331Z,87.92
2023-04-11T06:41:11.432Z,87.12
2023-04-11T06:43:39.440Z,87.50
2023-04-11T06:46:09.041Z,87.11
2023-04-11T06:48:37.217Z,86.73
2023-04-11T06:51:05.694Z,87.15
2023-04-11T06:53:33.735Z,87.10
2023-04-11T06:56:04.263Z,87.06
2023-04-11T06:58:32.371Z,87.21
2023-04-11T07:01:00.677Z,87.05
2023-04-11T07:03:28.789Z,85.82
2023-04-11T07:05:57.040Z,85.68
2023-04-11T07:08:25.068Z,85.54
2023-04-11T07:10:53.072Z,85.52
2023-04-11T07:13:22.447Z,85.04
2023-04-11T07:15:50.469Z,85.11
2023-04-11T07:18:18.547Z,85.12
2023-04-11T07:20:46.573Z,84.75
2023-04-11T07:23:14.622Z,84.35
2023-04-11T07:25:44.021Z,84.01
2023-04-11T07:28:12.115Z,84.15
2023-04-11T07:30:42.570Z,83.46
2023-04-11T07:33:11.108Z,83.65
2023-04-11T07:35:39.184Z,83.36
2023-04-11T07:38:09.563Z,82.66
2023-04-11T07:40:37.628Z,82.05
2023-04-11T07:43:05.727Z,81.33
2023-04-11T07:45:34.426Z,80.40
2023-04-11T07:48:03.934Z,79.56
2023-04-11T07:50:32.036Z,78.72
2023-04-11T07:52:59.997Z,78.48
2023-04-11T07:55:28.089Z,78.03
2023-04-11T07:57:56.104Z,77.66
2023-04-11T08:00:25.111Z,77.83
2023-04-11T08:02:53.475Z,76.94
2023-04-11T08:05:23.318Z,75.44
2023-04-11T08:07:51.409Z,74.59
2023-04-11T08:10:19.424Z,74.44
2023-04-11T08:12:47.418Z,74.04
2023-04-11T08:15:15.726Z,73.86
2023-04-11T08:17:43.917Z,73.08
2023-04-11T08:20:13.985Z,73.07
2023-04-11T08:22:44.857Z,71.53
2023-04-11T08:25:13.990Z,70.74
2023-04-11T08:27:42.474Z,70.36
2023-04-11T08:30:11.018Z,69.73
2023-04-11T08:32:42.034Z,68.57
2023-04-11T08:35:11.310Z,69.17
2023-04-11T08:37:39.475Z,68.66
2023-04-11T08:40:11.678Z,69.11
2023-04-11T08:42:39.686Z,67.98
2023-04-11T08:45:10.568Z,69.38
2023-04-11T08:47:39.104Z,68.37
2023-04-11T08:50:08.965Z,71.72
2023-04-11T08:52:39.461Z,71.20
2023-04-11T08:55:09.874Z,67.46
2023-04-11T08:57:38.302Z,66.67
2023-04-11T09:00:14.636Z,66.53
2023-04-11T09:02:57.098Z,66.85
2023-04-11T09:05:30.185Z,67.13
2023-04-11T09:07:59.089Z,69.26
2023-04-11T09:10:29.238Z,69.77
2023-04-11T09:12:57.820Z,70.90
2023-04-11T09:15:27.935Z,72.28
2023-04-11T09:17:59.681Z,71.50
2023-04-11T09:20:30.415Z,70.42
2023-04-11T09:22:59.977Z,69.87
2023-04-11T09:25:29.775Z,68.26
2023-04-11T09:28:11.584Z,68.35
2023-04-11T09:30:39.628Z,68.89
2023-04-11T09:33:21.429Z,68.80
2023-04-11T09:35:50.714Z,67.95
2023-04-11T09:38:29.732Z,66.02
2023-04-11T09:41:00.047Z,66.90
2023-04-11T09:43:28.293Z,66.26
2023-04-11T09:46:18.433Z,65.83
2023-04-11T09:49:00.918Z,65.42
2023-04-11T09:51:36.446Z,64.83
2023-04-11T09:54:06.496Z,64.46
2023-04-11T09:56:36.402Z,64.77
2023-04-11T09:59:05.272Z,64.35
2023-04-11T10:01:33.739Z,64.28
2023-04-11T10:04:01.999Z,64.40
2023-04-11T10:06:34.327Z,63.95
2023-04-11T10:09:08.488Z,63.31
2023-04-11T10:11:38.588Z,63.25
2023-04-11T10:14:06.755Z,62.85
2023-04-11T10:16:34.823Z,61.89
2023-04-11T10:19:25.073Z,61.00
2023-04-11T10:21:53.254Z,60.13
2023-04-11T10:24:22.227Z,60.48
2023-04-11T10:26:53.573Z,60.14
2023-04-11T10:29:48.440Z,59.58
2023-04-11T10:32:23.851Z,59.46
2023-04-11T10:35:23.745Z,58.94
2023-04-11T10:37:51.896Z,58.11
2023-04-11T10:40:20.856Z,57.47
2023-04-11T10:42:50.307Z,57.08
2023-04-11T10:45:21.968Z,56.49
2023-04-11T10:48:10.441Z,55.68
2023-04-11T10:50:42.336Z,55.40
2023-04-11T10:53:14.402Z,55.18
2023-04-11T10:55:47.583Z,55.46
2023-04-11T10:58:19.795Z,54.99
2023-04-11T11:01:25.709Z,55.18
2023-04-11T11:04:01.255Z,53.28
2023-04-11T11:06:29.575Z,53.44
2023-04-11T11:08:59.049Z,51.91
2023-04-11T11:11:27.118Z,52.94
2023-04-11T11:13:57.154Z,53.53
2023-04-11T11:16:26.602Z,53.35
2023-04-11T11:18:55.450Z,52.58
2023-04-11T11:21:28.353Z,52.22
2023-04-11T11:24:00.376Z,52.76
2023-04-11T11:26:38.499Z,51.95
2023-04-11T11:29:08.513Z,52.63
2023-04-11T11:31:39.353Z,52.57
2023-04-11T11:36:42.276Z,52.07
2023-04-11T11:39:11.473Z,51.63
2023-04-11T11:41:40.175Z,51.17
2023-04-11T11:44:22.930Z,51.97
2023-04-11T11:47:04.053Z,51.17
2023-04-11T11:49:45.943Z,50.80
2023-04-11T11:52:14.472Z,49.64
2023-04-11T11:54:46.554Z,49.02
2023-04-11T11:57:22.857Z,48.47
2023-04-11T11:59:56.290Z,48.57
2023-04-11T12:02:26.246Z,47.75
2023-04-11T12:04:59.953Z,47.84
2023-04-11T12:07:32.539Z,45.57
2023-04-11T12:10:01.255Z,46.67
2023-04-11T12:12:37.313Z,44.08
2023-04-11T12:15:12.248Z,43.21
2023-04-11T12:17:41.153Z,43.58
2023-04-11T12:20:10.839Z,42.48
2023-04-11T12:22:39.259Z,42.30
2023-04-11T12:25:08.405Z,40.67
2023-04-11T12:27:37.776Z,40.31
2023-04-11T12:30:08.662Z,40.31
2023-04-11T12:32:37.569Z,38.30
2023-04-11T12:35:07.443Z,39.24
2023-04-11T12:37:36.418Z,38.79
2023-04-11T12:40:07.066Z,37.89
2023-04-11T12:42:41.972Z,37.82
2023-04-11T12:45:16.108Z,38.16
2023-04-11T12:47:44.391Z,36.98
2023-04-11T12:50:12.659Z,39.21
2023-04-11T12:52:40.744Z,39.72
2023-04-11T12:55:10.008Z,40.80
2023-04-11T12:57:38.149Z,41.37
2023-04-11T13:00:08.313Z,40.64
2023-04-11T13:02:42.715Z,39.82
2023-04-11T13:05:14.205Z,39.46
2023-04-11T13:07:44.644Z,40.21
2023-04-11T13:10:14.026Z,42.18
2023-04-11T13:12:44.747Z,42.63
2023-04-11T13:15:14.849Z,41.61
2023-04-11T13:17:44.721Z,42.09
2023-04-11T13:20:13.816Z,42.86
2023-04-11T13:22:44.392Z,42.96
2023-04-11T13:25:15.411Z,42.89
2023-04-11T13:27:44.632Z,43.61
2023-04-11T13:30:13.936Z,43.29
2023-04-11T13:32:42.716Z,42.87
2023-04-11T13:35:13.804Z,43.68
2023-04-11T13:37:42.692Z,43.66
2023-04-11T13:40:12.791Z,42.97
2023-04-11T13:42:41.849Z,43.45
2023-04-11T13:45:11.212Z,44.13
2023-04-11T13:47:39.748Z,44.85
2023-04-11T13:50:11.796Z,46.17
2023-04-11T13:52:44.843Z,47.02
2023-04-11T13:55:14.001Z,46.71
2023-04-11T13:57:42.803Z,47.07
2023-04-11T14:00:12.661Z,47.10
2023-04-11T14:02:41.720Z,47.36
2023-04-11T14:05:10.549Z,48.41
2023-04-11T14:07:38.637Z,48.69
2023-04-11T14:10:09.172Z,49.69
2023-04-11T14:12:37.358Z,49.60
2023-04-11T14:15:06.358Z,49.49
2023-04-11T14:17:34.317Z,49.36
2023-04-11T14:20:02.437Z,47.90
2023-04-11T14:22:30.863Z,47.70
2023-04-11T14:24:59.062Z,47.12
2023-04-11T14:27:28.566Z,46.55
2023-04-11T14:29:56.715Z,46.78
2023-04-11T14:32:24.826Z,46.26
2023-04-11T14:34:53.822Z,46.70
2023-04-11T14:37:21.892Z,47.27
2023-04-11T14:39:49.912Z,46.64
2023-04-11T14:42:18.033Z,46.86
2023-04-11T14:44:47.508Z,47.51
2023-04-11T14:47:15.454Z,47.69
2023-04-11T14:49:44.147Z,48.75
2023-04-11T14:52:12.278Z,50.10
2023-04-11T14:54:40.290Z,50.81
2023-04-11T14:57:08.658Z,50.90
2023-04-11T14:59:36.730Z,50.19
2023-04-11T15:02:07.094Z,50.40
2023-04-11T15:04:35.150Z,49.84
2023-04-11T15:07:04.744Z,50.02
2023-04-11T15:09:33.396Z,50.46
2023-04-11T15:12:02.287Z,51.63
2023-04-11T15:14:30.368Z,51.90
2023-04-11T15:16:58.426Z,52.01
2023-04-11T15:19:28.407Z,52.46
2023-04-11T15:21:56.428Z,51.21
2023-04-11T15:24:24.662Z,49.58
2023-04-11T15:26:52.801Z,49.92
2023-04-11T15:29:20.913Z,50.03
2023-04-11T15:31:49.156Z,50.29
2023-04-11T15:34:17.266Z,50.43
2023-04-11T15:36:47.202Z,50.51
2023-04-11T15:39:16.735Z,50.58
2023-04-11T15:41:44.769Z,50.65
2023-04-11T15:44:12.938Z,50.63
2023-04-11T15:46:41.081Z,50.91
2023-04-11T15:49:09.125Z,51.58
2023-04-11T15:51:37.161Z,52.06
2023-04-11T15:54:07.387Z,52.20
2023-04-11T15:56:35.511Z,51.79
2023-04-11T15:59:03.547Z,52.61
2023-04-11T16:01:31.685Z,52.20
2023-04-11T16:04:00.077Z,51.72
2023-04-11T16:06:28.296Z,52.31
2023-04-11T16:08:56.706Z,51.84
2023-04-11T16:11:27.255Z,52.70
2023-04-11T16:13:55.691Z,53.46
2023-04-11T16:16:23.855Z,53.46
2023-04-11T16:18:52.250Z,53.10
2023-04-11T16:21:20.362Z,53.93
2023-04-11T16:23:48.409Z,61.84
2023-04-11T16:26:17.007Z,68.31
2023-04-11T16:28:46.441Z,72.98
2023-04-11T16:31:21.448Z,74.37
2023-04-11T16:33:49.600Z,74.63
2023-04-11T16:36:17.747Z,76.14
2023-04-11T16:38:46.227Z,79.28
2023-04-11T16:41:14.634Z,79.82
2023-04-11T16:43:42.662Z,78.38
2023-04-11T16:46:15.686Z,79.49
2023-04-11T16:48:44.046Z,80.78
2023-04-11T16:51:13.444Z,81.94
2023-04-11T16:53:41.838Z,82.08
2023-04-11T16:56:10.612Z,79.61
2023-04-11T16:58:38.737Z,78.84
2023-04-11T17:01:07.400Z,78.20
2023-04-11T17:03:36.991Z,77.16
2023-04-11T17:06:12.837Z,77.63
2023-04-11T17:08:41.785Z,75.74
2023-04-11T17:11:10.702Z,76.25
2023-04-11T17:13:39.476Z,76.00
2023-04-11T17:16:10.520Z,77.11
2023-04-11T17:18:41.686Z,77.71
2023-04-11T17:21:10.691Z,77.46
2023-04-11T17:23:43.401Z,76.12
2023-04-11T17:26:12.803Z,76.26
2023-04-11T17:28:42.755Z,78.82
2023-04-11T17:31:15.080Z,80.28
2023-04-11T17:33:45.479Z,80.04
2023-04-11T17:36:14.857Z,82.13
2023-04-11T17:38:43.722Z,83.37
2023-04-11T17:41:14.974Z,82.32
2023-04-11T17:43:44.607Z,82.03
2023-04-11T17:46:12.947Z,82.52
2023-04-11T17:48:41.088Z,80.39
2023-04-11T17:51:10.542Z,80.38
2023-04-11T17:53:38.812Z,81.59
2023-04-11T17:56:56.568Z,81.68
2023-04-11T17:59:42.661Z,81.12
2023-04-11T18:02:11.120Z,81.81
2023-04-11T18:04:39.364Z,82.15
2023-04-11T18:07:09.112Z,81.88
2023-04-11T18:09:38.012Z,83.48
2023-04-11T18:12:06.394Z,80.71
2023-04-11T18:14:35.034Z,80.84
2023-04-11T18:17:03.435Z,81.41
2023-04-11T18:19:31.567Z,84.08
2023-04-11T18:22:00.087Z,83.09
2023-04-11T18:24:29.600Z,82.26
2023-04-11T18:26:57.761Z,82.92
2023-04-11T18:29:25.923Z,82.69
2023-04-11T18:31:55.898Z,82.70
2023-04-11T18:34:24.136Z,82.58
2023-04-11T18:36:53.818Z,82.90
2023-04-11T18:39:24.785Z,83.67
2023-04-11T18:41:56.681Z,84.19
2023-04-11T18:44:26.300Z,84.03
2023-04-11T18:46:56.965Z,84.85
2023-04-11T18:49:26.614Z,86.21
2023-04-11T18:51:55.615Z,86.52
2023-04-11T18:54:24.547Z,85.63
2023-04-11T18:56:55.138Z,85.43
2023-04-11T18:59:29.132Z,87.94
2023-04-11T19:01:58.510Z,87.41
2023-04-11T19:04:27.443Z,88.93
2023-04-11T19:06:56.950Z,90.82
2023-04-11T19:09:25.334Z,92.27
2023-04-11T19:11:54.845Z,90.87
2023-04-11T19:14:23.174Z,91.51
2023-04-11T19:16:51.747Z,88.74
2023-04-11T19:19:19.998Z,88.04
2023-04-11T19:21:48.940Z,89.75
2023-04-11T19:24:17.248Z,91.96
2023-04-11T19:26:45.385Z,89.91
2023-04-11T19:29:14.957Z,89.64
2023-04-11T19:31:43.209Z,89.65
2023-04-11T19:34:11.843Z,87.54
2023-04-11T19:36:39.966Z,87.09
2023-04-11T19:39:08.382Z,87.23
2023-04-11T19:41:36.537Z,87.46
2023-04-11T19:44:04.686Z,87.42
2023-04-11T19:46:34.207Z,88.45
2023-04-11T19:49:02.610Z,89.43
2023-04-11T19:51:30.738Z,88.40
2023-04-11T19:53:59.073Z,87.52
2023-04-11T19:56:27.526Z,87.11
2023-04-11T19:58:55.638Z,89.29
2023-04-11T20:01:23.807Z,88.72
2023-04-11T20:03:57.169Z,89.46
2023-04-11T20:06:28.218Z,88.97
2023-04-11T20:08:56.966Z,87.98
2023-04-11T20:11:25.872Z,88.73
2023-04-11T20:13:55.727Z,89.91
2023-04-11T20:16:25.259Z,89.15
2023-04-11T20:18:54.820Z,87.14
2023-04-11T20:21:22.933Z,87.37
2023-04-11T20:23:51.741Z,87.87
2023-04-11T20:26:19.832Z,88.85
2023-04-11T20:28:49.770Z,88.51
2023-04-11T20:31:17.813Z,89.41
2023-04-11T20:33:45.951Z,90.01
2023-04-11T20:36:15.768Z,88.97
2023-04-11T20:38:43.954Z,88.43
2023-04-11T20:41:12.189Z,88.71
2023-04-11T20:43:41.877Z,87.14
2023-04-11T20:46:13.610Z,88.49
2023-04-11T20:48:43.171Z,88.21
2023-04-11T20:51:11.405Z,88.41
2023-04-11T20:53:40.786Z,87.46
2023-04-11T20:56:08.897Z,86.09
2023-04-11T20:58:37.017Z,86.05
2023-04-11T21:01:05.110Z,85.76
2023-04-11T21:03:37.399Z,84.72
2023-04-11T21:06:07.550Z,85.10
2023-04-11T21:08:37.566Z,85.43
2023-04-11T21:11:07.212Z,85.89
2023-04-11T21:13:35.292Z,85.42
2023-04-11T21:16:03.384Z,84.71
2023-04-11T21:18:31.434Z,85.51
2023-04-11T21:20:59.694Z,85.98
2023-04-11T21:23:27.810Z,85.95
2023-04-11T21:25:56.012Z,88.12
2023-04-11T21:28:25.385Z,86.65
2023-04-11T21:30:53.541Z,87.59
2023-04-11T21:33:21.686Z,86.08
2023-04-11T21:35:49.916Z,89.53
2023-04-11T21:38:17.964Z,88.56
2023-04-11T21:40:46.136Z,87.98
2023-04-11T21:43:14.240Z,89.27
2023-04-11T21:45:43.616Z,91.16
2023-04-11T21:48:11.833Z,90.07
2023-04-11T21:50:39.932Z,90.73
2023-04-11T21:53:07.896Z,90.86
2023-04-11T21:55:36.051Z,91.83
2023-04-11T21:58:04.085Z,89.86
2023-04-11T22:00:32.402Z,89.13
2023-04-11T22:03:01.891Z,87.21
2023-04-11T22:05:30.768Z,89.84
2023-04-11T22:08:11.667Z,86.60
2023-04-11T22:10:47.662Z,87.88
2023-04-11T22:13:17.326Z,87.89
2023-04-11T22:15:45.853Z,87.66
2023-04-11T22:18:15.528Z,90.91
2023-04-11T22:20:44.638Z,91.15
2023-04-11T22:23:13.829Z,91.92
2023-04-11T22:25:42.658Z,91.29
2023-04-11T22:28:14.175Z,91.14
2023-04-11T22:30:44.200Z,93.06
2023-04-11T22:33:13.768Z,91.68
2023-04-11T22:35:45.131Z,93.80
2023-04-11T22:38:13.191Z,95.52
2023-04-11T22:40:41.315Z,96.50
2023-04-11T22:43:09.960Z,96.69
2023-04-11T22:45:38.061Z,94.47
2023-04-11T22:48:07.071Z,93.18
2023-04-11T22:50:37.349Z,90.92
2023-04-11T22:53:09.576Z,88.59
2023-04-11T22:55:40.105Z,88.59
2023-04-11T22:58:08.224Z,87.16
2023-04-11T23:00:38.419Z,85.77
2023-04-11T23:03:07.348Z,84.92
2023-04-11T23:05:39.602Z,84.58
2023-04-11T23:08:10.032Z,83.12
2023-04-11T23:10:38.171Z,84.26
2023-04-11T23:13:06.153Z,83.28
2023-04-11T23:15:34.185Z,82.71
2023-04-11T23:18:02.469Z,81.72
2023-04-11T23:20:30.586Z,82.38
2023-04-11T23:22:59.232Z,82.76
2023-04-11T23:25:29.246Z,84.01
2023-04-11T23:27:57.278Z,84.64
2023-04-11T23:30:25.415Z,87.31
2023-04-11T23:32:54.521Z,88.92
2023-04-11T23:35:23.763Z,90.93
2023-04-11T23:37:51.995Z,90.74
2023-04-11T23:40:20.161Z,91.97
2023-04-11T23:42:49.856Z,91.22
2023-04-11T23:45:22.358Z,91.82
2023-04-11T23:47:50.539Z,92.33
2023-04-11T23:50:18.937Z,94.00
2023-04-11T23:52:47.676Z,93.51
2023-04-11T23:55:15.810Z,94.18
2023-04-11T23:57:43.808Z,95.84
